sensor_id;sensor_type;location;lat;lon;timestamp;P1;durP1;ratioP1;P2;durP2;ratioP2
76165;SDS011;65085;46.718;20.136;2022-12-07T00:00:52;64.90;;;27.47;;
76165;SDS011;65085;46.718;20.136;2022-12-07T00:03:57;59.58;;;25.88;;
76165;SDS011;65085;46.718;20.136;2022-12-07T00:07:06;48.90;;;22.15;;
76165;SDS011;65085;46.718;20.136;2022-12-07T00:10:09;47.70;;;22.67;;
76165;SDS011;65085;46.718;20.136;2022-12-07T00:13:11;54.10;;;24.95;;
76165;SDS011;65085;46.718;20.136;2022-12-07T00:16:14;54.97;;;25.73;;
76165;SDS011;65085;46.718;20.136;2022-12-07T00:19:20;42.95;;;20.92;;
76165;SDS011;65085;46.718;20.136;2022-12-07T00:22:22;30.10;;;12.88;;
76165;SDS011;65085;46.718;20.136;2022-12-07T00:25:25;26.42;;;11.82;;
76165;SDS011;65085;46.718;20.136;2022-12-07T00:28:28;60.60;;;29.30;;
76165;SDS011;65085;46.718;20.136;2022-12-07T00:31:31;161.03;;;74.67;;
76165;SDS011;65085;46.718;20.136;2022-12-07T00:34:37;266.92;;;112.68;;
76165;SDS011;65085;46.718;20.136;2022-12-07T00:37:40;186.85;;;80.63;;
76165;SDS011;65085;46.718;20.136;2022-12-07T00:40:43;91.75;;;42.35;;
76165;SDS011;65085;46.718;20.136;2022-12-07T00:43:46;53.58;;;25.92;;
76165;SDS011;65085;46.718;20.136;2022-12-07T00:46:50;46.07;;;21.17;;
76165;SDS011;65085;46.718;20.136;2022-12-07T00:49:53;36.60;;;17.23;;
76165;SDS011;65085;46.718;20.136;2022-12-07T00:52:56;38.40;;;17.85;;
76165;SDS011;65085;46.718;20.136;2022-12-07T00:56:01;27.77;;;13.18;;
76165;SDS011;65085;46.718;20.136;2022-12-07T00:59:07;26.20;;;12.20;;
76165;SDS011;65085;46.718;20.136;2022-12-07T01:02:14;29.67;;;12.07;;
76165;SDS011;65085;46.718;20.136;2022-12-07T01:05:17;26.25;;;11.75;;
76165;SDS011;65085;46.718;20.136;2022-12-07T01:08:21;22.98;;;11.07;;
76165;SDS011;65085;46.718;20.136;2022-12-07T01:11:26;28.58;;;12.25;;
76165;SDS011;65085;46.718;20.136;2022-12-07T01:14:31;32.10;;;15.35;;
76165;SDS011;65085;46.718;20.136;2022-12-07T01:17:33;46.80;;;24.90;;
76165;SDS011;65085;46.718;20.136;2022-12-07T01:20:38;47.03;;;24.20;;
76165;SDS011;65085;46.718;20.136;2022-12-07T01:23:40;48.25;;;24.77;;
76165;SDS011;65085;46.718;20.136;2022-12-07T01:26:44;48.28;;;22.17;;
76165;SDS011;65085;46.718;20.136;2022-12-07T01:29:47;50.05;;;24.35;;
76165;SDS011;65085;46.718;20.136;2022-12-07T01:32:49;45.67;;;22.90;;
76165;SDS011;65085;46.718;20.136;2022-12-07T01:35:53;44.58;;;22.83;;
76165;SDS011;65085;46.718;20.136;2022-12-07T01:38:56;43.13;;;20.10;;
76165;SDS011;65085;46.718;20.136;2022-12-07T01:42:00;38.25;;;19.05;;
76165;SDS011;65085;46.718;20.136;2022-12-07T01:45:34;36.85;;;17.67;;
76165;SDS011;65085;46.718;20.136;2022-12-07T01:48:40;25.30;;;13.10;;
76165;SDS011;65085;46.718;20.136;2022-12-07T01:51:45;27.20;;;13.23;;
76165;SDS011;65085;46.718;20.136;2022-12-07T01:54:50;28.92;;;14.13;;
76165;SDS011;65085;46.718;20.136;2022-12-07T01:57:55;35.10;;;17.35;;
76165;SDS011;65085;46.718;20.136;2022-12-07T02:00:58;30.60;;;15.13;;
76165;SDS011;65085;46.718;20.136;2022-12-07T02:04:01;40.07;;;17.83;;
76165;SDS011;65085;46.718;20.136;2022-12-07T02:07:05;32.70;;;15.98;;
76165;SDS011;65085;46.718;20.136;2022-12-07T02:10:12;40.30;;;15.88;;
76165;SDS011;65085;46.718;20.136;2022-12-07T02:13:16;35.35;;;15.65;;
76165;SDS011;65085;46.718;20.136;2022-12-07T02:16:25;32.47;;;14.98;;
76165;SDS011;65085;46.718;20.136;2022-12-07T02:23:18;26.92;;;11.73;;
76165;SDS011;65085;46.718;20.136;2022-12-07T02:26:47;24.25;;;10.60;;
76165;SDS011;65085;46.718;20.136;2022-12-07T02:30:09;21.45;;;10.48;;
76165;SDS011;65085;46.718;20.136;2022-12-07T02:33:14;22.17;;;11.00;;
76165;SDS011;65085;46.718;20.136;2022-12-07T02:36:22;24.60;;;11.50;;
76165;SDS011;65085;46.718;20.136;2022-12-07T02:39:31;26.67;;;12.02;;
76165;SDS011;65085;46.718;20.136;2022-12-07T02:42:44;26.65;;;12.10;;
76165;SDS011;65085;46.718;20.136;2022-12-07T02:45:53;25.60;;;12.50;;
76165;SDS011;65085;46.718;20.136;2022-12-07T02:49:00;24.15;;;11.93;;
76165;SDS011;65085;46.718;20.136;2022-12-07T02:52:03;21.40;;;11.27;;
76165;SDS011;65085;46.718;20.136;2022-12-07T02:55:06;26.27;;;12.07;;
76165;SDS011;65085;46.718;20.136;2022-12-07T02:58:23;28.75;;;12.68;;
76165;SDS011;65085;46.718;20.136;2022-12-07T03:01:38;25.15;;;11.82;;
76165;SDS011;65085;46.718;20.136;2022-12-07T03:04:49;28.73;;;13.55;;
76165;SDS011;65085;46.718;20.136;2022-12-07T03:07:59;30.27;;;13.33;;
76165;SDS011;65085;46.718;20.136;2022-12-07T03:11:08;33.92;;;15.10;;
76165;SDS011;65085;46.718;20.136;2022-12-07T03:14:13;35.03;;;15.63;;
76165;SDS011;65085;46.718;20.136;2022-12-07T03:17:22;34.70;;;16.52;;
76165;SDS011;65085;46.718;20.136;2022-12-07T03:20:29;33.65;;;16.27;;
76165;SDS011;65085;46.718;20.136;2022-12-07T03:23:36;37.70;;;17.57;;
76165;SDS011;65085;46.718;20.136;2022-12-07T03:26:41;37.80;;;17.30;;
76165;SDS011;65085;46.718;20.136;2022-12-07T03:29:48;39.85;;;17.38;;
76165;SDS011;65085;46.718;20.136;2022-12-07T03:32:58;36.30;;;16.38;;
76165;SDS011;65085;46.718;20.136;2022-12-07T03:36:06;36.17;;;15.82;;
76165;SDS011;65085;46.718;20.136;2022-12-07T03:39:17;32.97;;;15.57;;
76165;SDS011;65085;46.718;20.136;2022-12-07T03:42:25;34.97;;;15.35;;
76165;SDS011;65085;46.718;20.136;2022-12-07T03:45:31;32.53;;;14.80;;
76165;SDS011;65085;46.718;20.136;2022-12-07T03:48:41;35.80;;;15.82;;
76165;SDS011;65085;46.718;20.136;2022-12-07T03:51:54;33.83;;;15.30;;
76165;SDS011;65085;46.718;20.136;2022-12-07T03:55:04;28.47;;;13.57;;
76165;SDS011;65085;46.718;20.136;2022-12-07T03:58:11;29.05;;;13.50;;
76165;SDS011;65085;46.718;20.136;2022-12-07T04:01:17;23.75;;;11.65;;
76165;SDS011;65085;46.718;20.136;2022-12-07T04:04:22;31.23;;;12.23;;
76165;SDS011;65085;46.718;20.136;2022-12-07T04:07:26;27.45;;;12.13;;
76165;SDS011;65085;46.718;20.136;2022-12-07T04:10:29;27.20;;;12.37;;
76165;SDS011;65085;46.718;20.136;2022-12-07T04:13:32;28.08;;;12.23;;
76165;SDS011;65085;46.718;20.136;2022-12-07T04:16:55;34.55;;;13.38;;
76165;SDS011;65085;46.718;20.136;2022-12-07T04:20:00;37.00;;;13.77;;
76165;SDS011;65085;46.718;20.136;2022-12-07T04:23:03;31.30;;;14.02;;
76165;SDS011;65085;46.718;20.136;2022-12-07T04:26:06;41.03;;;13.70;;
76165;SDS011;65085;46.718;20.136;2022-12-07T04:29:09;37.50;;;13.30;;
76165;SDS011;65085;46.718;20.136;2022-12-07T04:32:11;52.00;;;15.63;;
76165;SDS011;65085;46.718;20.136;2022-12-07T04:35:15;60.53;;;17.45;;
76165;SDS011;65085;46.718;20.136;2022-12-07T04:38:18;67.30;;;18.30;;
76165;SDS011;65085;46.718;20.136;2022-12-07T04:41:21;54.17;;;17.13;;
76165;SDS011;65085;46.718;20.136;2022-12-07T04:44:30;53.90;;;17.15;;
76165;SDS011;65085;46.718;20.136;2022-12-07T04:47:34;45.50;;;16.13;;
76165;SDS011;65085;46.718;20.136;2022-12-07T04:50:38;36.28;;;14.13;;
76165;SDS011;65085;46.718;20.136;2022-12-07T04:53:47;44.92;;;14.23;;
76165;SDS011;65085;46.718;20.136;2022-12-07T04:56:50;38.80;;;14.70;;
76165;SDS011;65085;46.718;20.136;2022-12-07T04:59:53;34.40;;;14.10;;
76165;SDS011;65085;46.718;20.136;2022-12-07T05:02:55;42.22;;;15.63;;
76165;SDS011;65085;46.718;20.136;2022-12-07T05:05:59;57.92;;;20.98;;
76165;SDS011;65085;46.718;20.136;2022-12-07T05:09:02;41.65;;;16.52;;
76165;SDS011;65085;46.718;20.136;2022-12-07T05:12:05;37.70;;;15.90;;
76165;SDS011;65085;46.718;20.136;2022-12-07T05:15:08;50.85;;;17.90;;
76165;SDS011;65085;46.718;20.136;2022-12-07T05:18:11;45.53;;;17.48;;
76165;SDS011;65085;46.718;20.136;2022-12-07T05:21:16;50.30;;;16.55;;
76165;SDS011;65085;46.718;20.136;2022-12-07T05:24:18;47.05;;;16.90;;
76165;SDS011;65085;46.718;20.136;2022-12-07T05:27:21;40.83;;;16.13;;
76165;SDS011;65085;46.718;20.136;2022-12-07T05:30:25;45.90;;;17.15;;
76165;SDS011;65085;46.718;20.136;2022-12-07T05:33:28;42.33;;;16.77;;
76165;SDS011;65085;46.718;20.136;2022-12-07T05:36:32;45.67;;;17.75;;
76165;SDS011;65085;46.718;20.136;2022-12-07T05:39:35;50.55;;;19.00;;
76165;SDS011;65085;46.718;20.136;2022-12-07T05:42:37;38.20;;;16.07;;
76165;SDS011;65085;46.718;20.136;2022-12-07T05:45:40;50.15;;;17.67;;
76165;SDS011;65085;46.718;20.136;2022-12-07T05:48:42;136.45;;;55.60;;
76165;SDS011;65085;46.718;20.136;2022-12-07T05:51:46;44.05;;;17.88;;
76165;SDS011;65085;46.718;20.136;2022-12-07T05:54:49;38.90;;;16.48;;
76165;SDS011;65085;46.718;20.136;2022-12-07T05:57:52;42.83;;;17.03;;
76165;SDS011;65085;46.718;20.136;2022-12-07T06:01:13;34.03;;;15.10;;
76165;SDS011;65085;46.718;20.136;2022-12-07T06:04:16;54.42;;;20.65;;
76165;SDS011;65085;46.718;20.136;2022-12-07T06:07:21;63.17;;;25.13;;
76165;SDS011;65085;46.718;20.136;2022-12-07T06:10:24;61.78;;;25.13;;
76165;SDS011;65085;46.718;20.136;2022-12-07T06:13:27;60.27;;;24.90;;
76165;SDS011;65085;46.718;20.136;2022-12-07T06:16:29;74.05;;;26.30;;
76165;SDS011;65085;46.718;20.136;2022-12-07T06:19:32;64.75;;;24.60;;
76165;SDS011;65085;46.718;20.136;2022-12-07T06:22:37;79.72;;;28.40;;
76165;SDS011;65085;46.718;20.136;2022-12-07T06:25:40;78.25;;;29.55;;
76165;SDS011;65085;46.718;20.136;2022-12-07T06:28:47;82.27;;;30.30;;
76165;SDS011;65085;46.718;20.136;2022-12-07T06:31:50;101.80;;;35.28;;
76165;SDS011;65085;46.718;20.136;2022-12-07T06:34:53;101.13;;;37.13;;
76165;SDS011;65085;46.718;20.136;2022-12-07T06:37:57;124.28;;;47.80;;
76165;SDS011;65085;46.718;20.136;2022-12-07T06:41:00;93.00;;;36.53;;
76165;SDS011;65085;46.718;20.136;2022-12-07T06:44:03;90.37;;;36.37;;
76165;SDS011;65085;46.718;20.136;2022-12-07T06:47:07;91.22;;;38.38;;
76165;SDS011;65085;46.718;20.136;2022-12-07T06:50:30;102.93;;;39.28;;
76165;SDS011;65085;46.718;20.136;2022-12-07T06:53:34;101.32;;;40.15;;
76165;SDS011;65085;46.718;20.136;2022-12-07T06:56:36;101.53;;;40.80;;
76165;SDS011;65085;46.718;20.136;2022-12-07T06:59:39;92.37;;;37.57;;
76165;SDS011;65085;46.718;20.136;2022-12-07T07:02:42;65.78;;;28.20;;
76165;SDS011;65085;46.718;20.136;2022-12-07T07:05:45;73.43;;;29.63;;
76165;SDS011;65085;46.718;20.136;2022-12-07T07:08:49;73.47;;;28.50;;
76165;SDS011;65085;46.718;20.136;2022-12-07T07:11:52;75.15;;;30.33;;
76165;SDS011;65085;46.718;20.136;2022-12-07T07:14:55;141.77;;;45.30;;
76165;SDS011;65085;46.718;20.136;2022-12-07T07:17:58;133.88;;;45.28;;
76165;SDS011;65085;46.718;20.136;2022-12-07T07:21:08;122.07;;;42.45;;
76165;SDS011;65085;46.718;20.136;2022-12-07T07:24:12;129.77;;;45.55;;
76165;SDS011;65085;46.718;20.136;2022-12-07T07:27:15;142.27;;;48.35;;
76165;SDS011;65085;46.718;20.136;2022-12-07T07:30:18;162.27;;;53.13;;
76165;SDS011;65085;46.718;20.136;2022-12-07T07:33:21;128.10;;;45.03;;
76165;SDS011;65085;46.718;20.136;2022-12-07T07:36:23;119.38;;;42.83;;
76165;SDS011;65085;46.718;20.136;2022-12-07T07:39:27;122.63;;;42.50;;
76165;SDS011;65085;46.718;20.136;2022-12-07T07:42:30;94.00;;;34.05;;
76165;SDS011;65085;46.718;20.136;2022-12-07T07:45:33;79.73;;;29.83;;
76165;SDS011;65085;46.718;20.136;2022-12-07T07:48:36;69.00;;;27.13;;
76165;SDS011;65085;46.718;20.136;2022-12-07T07:51:44;57.88;;;25.00;;
76165;SDS011;65085;46.718;20.136;2022-12-07T07:54:48;47.10;;;22.00;;
76165;SDS011;65085;46.718;20.136;2022-12-07T07:57:52;43.60;;;22.23;;
76165;SDS011;65085;46.718;20.136;2022-12-07T08:00:56;46.30;;;21.50;;
76165;SDS011;65085;46.718;20.136;2022-12-07T08:03:59;44.45;;;21.95;;
76165;SDS011;65085;46.718;20.136;2022-12-07T08:07:02;62.33;;;30.25;;
76165;SDS011;65085;46.718;20.136;2022-12-07T08:10:07;50.75;;;25.92;;
76165;SDS011;65085;46.718;20.136;2022-12-07T08:13:12;60.08;;;31.55;;
76165;SDS011;65085;46.718;20.136;2022-12-07T08:16:17;55.53;;;28.63;;
76165;SDS011;65085;46.718;20.136;2022-12-07T08:19:20;44.53;;;23.83;;
76165;SDS011;65085;46.718;20.136;2022-12-07T08:22:23;53.97;;;27.17;;
76165;SDS011;65085;46.718;20.136;2022-12-07T08:25:27;48.58;;;26.48;;
76165;SDS011;65085;46.718;20.136;2022-12-07T08:28:30;39.25;;;23.20;;
76165;SDS011;65085;46.718;20.136;2022-12-07T08:31:33;40.43;;;22.80;;
76165;SDS011;65085;46.718;20.136;2022-12-07T08:34:36;39.45;;;19.60;;
76165;SDS011;65085;46.718;20.136;2022-12-07T08:37:39;38.63;;;19.15;;
76165;SDS011;65085;46.718;20.136;2022-12-07T08:40:43;41.70;;;20.30;;
76165;SDS011;65085;46.718;20.136;2022-12-07T08:43:46;41.13;;;20.52;;
76165;SDS011;65085;46.718;20.136;2022-12-07T08:46:49;42.07;;;20.90;;
76165;SDS011;65085;46.718;20.136;2022-12-07T08:49:56;40.75;;;18.90;;
76165;SDS011;65085;46.718;20.136;2022-12-07T08:53:07;52.65;;;23.00;;
76165;SDS011;65085;46.718;20.136;2022-12-07T08:56:12;48.15;;;23.00;;
76165;SDS011;65085;46.718;20.136;2022-12-07T08:59:15;46.70;;;22.85;;
76165;SDS011;65085;46.718;20.136;2022-12-07T09:02:27;39.93;;;17.10;;
76165;SDS011;65085;46.718;20.136;2022-12-07T09:05:30;36.92;;;17.33;;
76165;SDS011;65085;46.718;20.136;2022-12-07T09:08:36;33.15;;;16.35;;
76165;SDS011;65085;46.718;20.136;2022-12-07T09:11:42;27.10;;;12.60;;
76165;SDS011;65085;46.718;20.136;2022-12-07T09:14:47;23.88;;;12.75;;
76165;SDS011;65085;46.718;20.136;2022-12-07T09:17:50;22.00;;;12.47;;
76165;SDS011;65085;46.718;20.136;2022-12-07T09:20:53;22.15;;;12.65;;
76165;SDS011;65085;46.718;20.136;2022-12-07T09:23:56;23.88;;;13.43;;
76165;SDS011;65085;46.718;20.136;2022-12-07T09:27:00;25.92;;;13.10;;
76165;SDS011;65085;46.718;20.136;2022-12-07T09:30:03;27.52;;;15.30;;
76165;SDS011;65085;46.718;20.136;2022-12-07T09:33:07;26.60;;;12.87;;
76165;SDS011;65085;46.718;20.136;2022-12-07T09:36:10;26.70;;;13.43;;
76165;SDS011;65085;46.718;20.136;2022-12-07T09:39:13;29.20;;;13.32;;
76165;SDS011;65085;46.718;20.136;2022-12-07T09:42:26;20.80;;;11.55;;
76165;SDS011;65085;46.718;20.136;2022-12-07T09:45:32;22.13;;;14.23;;
76165;SDS011;65085;46.718;20.136;2022-12-07T09:48:38;23.93;;;13.10;;
76165;SDS011;65085;46.718;20.136;2022-12-07T09:51:41;25.05;;;13.77;;
76165;SDS011;65085;46.718;20.136;2022-12-07T09:54:45;26.92;;;14.77;;
76165;SDS011;65085;46.718;20.136;2022-12-07T09:57:52;23.60;;;12.38;;
76165;SDS011;65085;46.718;20.136;2022-12-07T10:00:56;28.40;;;14.52;;
76165;SDS011;65085;46.718;20.136;2022-12-07T10:04:08;21.03;;;11.97;;
76165;SDS011;65085;46.718;20.136;2022-12-07T10:07:15;16.23;;;9.85;;
76165;SDS011;65085;46.718;20.136;2022-12-07T10:10:19;18.75;;;11.07;;
76165;SDS011;65085;46.718;20.136;2022-12-07T10:13:35;23.73;;;13.18;;
76165;SDS011;65085;46.718;20.136;2022-12-07T10:16:40;17.25;;;10.68;;
76165;SDS011;65085;46.718;20.136;2022-12-07T10:19:44;17.37;;;9.47;;
76165;SDS011;65085;46.718;20.136;2022-12-07T10:22:57;20.55;;;10.85;;
76165;SDS011;65085;46.718;20.136;2022-12-07T10:26:20;17.55;;;10.52;;
76165;SDS011;65085;46.718;20.136;2022-12-07T10:29:32;17.27;;;9.77;;
76165;SDS011;65085;46.718;20.136;2022-12-07T10:32:36;18.55;;;10.77;;
76165;SDS011;65085;46.718;20.136;2022-12-07T10:35:42;14.43;;;9.23;;
76165;SDS011;65085;46.718;20.136;2022-12-07T10:38:46;13.48;;;9.02;;
76165;SDS011;65085;46.718;20.136;2022-12-07T10:41:54;12.95;;;8.82;;
76165;SDS011;65085;46.718;20.136;2022-12-07T10:45:09;16.77;;;9.85;;
76165;SDS011;65085;46.718;20.136;2022-12-07T10:48:22;16.50;;;10.48;;
76165;SDS011;65085;46.718;20.136;2022-12-07T10:51:35;11.07;;;7.23;;
76165;SDS011;65085;46.718;20.136;2022-12-07T10:54:48;11.13;;;7.05;;
76165;SDS011;65085;46.718;20.136;2022-12-07T10:58:07;14.48;;;8.32;;
76165;SDS011;65085;46.718;20.136;2022-12-07T11:01:38;12.90;;;7.85;;
76165;SDS011;65085;46.718;20.136;2022-12-07T11:04:49;13.57;;;7.60;;
76165;SDS011;65085;46.718;20.136;2022-12-07T11:08:04;9.97;;;5.77;;
76165;SDS011;65085;46.718;20.136;2022-12-07T11:11:14;10.38;;;5.80;;
76165;SDS011;65085;46.718;20.136;2022-12-07T11:14:23;9.18;;;6.03;;
76165;SDS011;65085;46.718;20.136;2022-12-07T11:17:34;28.38;;;12.20;;
76165;SDS011;65085;46.718;20.136;2022-12-07T11:20:43;11.63;;;7.70;;
76165;SDS011;65085;46.718;20.136;2022-12-07T11:23:54;12.47;;;7.70;;
76165;SDS011;65085;46.718;20.136;2022-12-07T11:27:06;11.02;;;7.03;;
76165;SDS011;65085;46.718;20.136;2022-12-07T11:30:19;11.15;;;6.93;;
76165;SDS011;65085;46.718;20.136;2022-12-07T11:33:28;13.70;;;6.72;;
76165;SDS011;65085;46.718;20.136;2022-12-07T11:36:38;11.77;;;7.28;;
76165;SDS011;65085;46.718;20.136;2022-12-07T11:39:44;14.77;;;8.10;;
76165;SDS011;65085;46.718;20.136;2022-12-07T11:42:52;13.15;;;8.43;;
76165;SDS011;65085;46.718;20.136;2022-12-07T11:46:02;9.98;;;6.65;;
76165;SDS011;65085;46.718;20.136;2022-12-07T11:49:10;12.23;;;7.80;;
76165;SDS011;65085;46.718;20.136;2022-12-07T11:52:20;14.00;;;7.70;;
76165;SDS011;65085;46.718;20.136;2022-12-07T11:55:29;12.50;;;7.23;;
76165;SDS011;65085;46.718;20.136;2022-12-07T11:58:44;20.75;;;10.57;;
76165;SDS011;65085;46.718;20.136;2022-12-07T12:01:53;14.23;;;8.82;;
76165;SDS011;65085;46.718;20.136;2022-12-07T12:05:02;18.17;;;9.43;;
76165;SDS011;65085;46.718;20.136;2022-12-07T12:08:15;23.88;;;12.00;;
76165;SDS011;65085;46.718;20.136;2022-12-07T12:11:49;21.73;;;9.40;;
76165;SDS011;65085;46.718;20.136;2022-12-07T12:15:28;19.83;;;10.43;;
76165;SDS011;65085;46.718;20.136;2022-12-07T12:18:45;15.63;;;9.02;;
76165;SDS011;65085;46.718;20.136;2022-12-07T12:22:09;12.68;;;8.32;;
76165;SDS011;65085;46.718;20.136;2022-12-07T12:25:19;11.43;;;6.75;;
76165;SDS011;65085;46.718;20.136;2022-12-07T12:28:26;14.77;;;8.33;;
76165;SDS011;65085;46.718;20.136;2022-12-07T12:31:34;12.30;;;7.30;;
76165;SDS011;65085;46.718;20.136;2022-12-07T12:34:40;14.05;;;7.50;;
76165;SDS011;65085;46.718;20.136;2022-12-07T12:48:27;21.58;;;9.85;;
76165;SDS011;65085;46.718;20.136;2022-12-07T12:51:37;20.00;;;8.70;;
76165;SDS011;65085;46.718;20.136;2022-12-07T12:54:57;15.50;;;8.00;;
76165;SDS011;65085;46.718;20.136;2022-12-07T12:58:27;18.08;;;9.75;;
76165;SDS011;65085;46.718;20.136;2022-12-07T13:01:47;18.60;;;9.17;;
76165;SDS011;65085;46.718;20.136;2022-12-07T13:04:53;32.17;;;14.77;;
76165;SDS011;65085;46.718;20.136;2022-12-07T13:07:59;27.13;;;12.75;;
76165;SDS011;65085;46.718;20.136;2022-12-07T13:11:17;22.45;;;11.07;;
76165;SDS011;65085;46.718;20.136;2022-12-07T13:14:51;19.25;;;10.50;;
76165;SDS011;65085;46.718;20.136;2022-12-07T13:17:58;38.50;;;15.90;;
76165;SDS011;65085;46.718;20.136;2022-12-07T13:21:39;40.65;;;14.50;;
76165;SDS011;65085;46.718;20.136;2022-12-07T13:24:46;46.70;;;13.90;;
76165;SDS011;65085;46.718;20.136;2022-12-07T13:27:50;31.17;;;13.95;;
76165;SDS011;65085;46.718;20.136;2022-12-07T13:31:00;24.38;;;11.68;;
76165;SDS011;65085;46.718;20.136;2022-12-07T13:34:28;25.50;;;12.00;;
76165;SDS011;65085;46.718;20.136;2022-12-07T13:37:34;26.20;;;11.43;;
76165;SDS011;65085;46.718;20.136;2022-12-07T13:40:40;41.05;;;16.27;;
76165;SDS011;65085;46.718;20.136;2022-12-07T13:43:45;38.00;;;15.63;;
76165;SDS011;65085;46.718;20.136;2022-12-07T13:46:57;23.38;;;11.77;;
76165;SDS011;65085;46.718;20.136;2022-12-07T13:50:20;27.70;;;13.37;;
76165;SDS011;65085;46.718;20.136;2022-12-07T13:53:26;33.15;;;14.50;;
76165;SDS011;65085;46.718;20.136;2022-12-07T13:56:32;28.17;;;12.00;;
76165;SDS011;65085;46.718;20.136;2022-12-07T13:59:46;17.58;;;9.15;;
76165;SDS011;65085;46.718;20.136;2022-12-07T14:02:59;35.50;;;15.95;;
76165;SDS011;65085;46.718;20.136;2022-12-07T14:09:29;36.17;;;17.67;;
76165;SDS011;65085;46.718;20.136;2022-12-07T14:12:32;46.38;;;18.35;;
76165;SDS011;65085;46.718;20.136;2022-12-07T14:15:38;34.15;;;15.00;;
76165;SDS011;65085;46.718;20.136;2022-12-07T14:18:42;34.80;;;14.45;;
76165;SDS011;65085;46.718;20.136;2022-12-07T14:21:46;43.70;;;20.50;;
76165;SDS011;65085;46.718;20.136;2022-12-07T14:24:50;48.55;;;21.35;;
76165;SDS011;65085;46.718;20.136;2022-12-07T14:27:54;55.25;;;24.73;;
76165;SDS011;65085;46.718;20.136;2022-12-07T14:30:59;53.50;;;24.50;;
76165;SDS011;65085;46.718;20.136;2022-12-07T14:34:02;53.05;;;24.35;;
76165;SDS011;65085;46.718;20.136;2022-12-07T14:37:07;58.13;;;25.77;;
76165;SDS011;65085;46.718;20.136;2022-12-07T14:40:14;59.70;;;27.48;;
76165;SDS011;65085;46.718;20.136;2022-12-07T14:43:18;62.20;;;28.52;;
76165;SDS011;65085;46.718;20.136;2022-12-07T14:46:23;95.80;;;38.83;;
76165;SDS011;65085;46.718;20.136;2022-12-07T14:49:26;148.35;;;55.70;;
76165;SDS011;65085;46.718;20.136;2022-12-07T14:52:38;141.27;;;50.87;;
76165;SDS011;65085;46.718;20.136;2022-12-07T14:56:04;143.73;;;53.33;;
76165;SDS011;65085;46.718;20.136;2022-12-07T14:59:08;148.85;;;54.78;;
76165;SDS011;65085;46.718;20.136;2022-12-07T15:02:14;146.20;;;57.47;;
76165;SDS011;65085;46.718;20.136;2022-12-07T15:05:17;171.15;;;64.88;;
76165;SDS011;65085;46.718;20.136;2022-12-07T15:08:21;175.53;;;66.00;;
76165;SDS011;65085;46.718;20.136;2022-12-07T15:11:25;137.43;;;51.78;;
76165;SDS011;65085;46.718;20.136;2022-12-07T15:14:27;142.15;;;51.90;;
76165;SDS011;65085;46.718;20.136;2022-12-07T15:17:30;115.82;;;47.63;;
76165;SDS011;65085;46.718;20.136;2022-12-07T15:20:36;108.18;;;45.35;;
76165;SDS011;65085;46.718;20.136;2022-12-07T15:23:40;84.30;;;36.43;;
76165;SDS011;65085;46.718;20.136;2022-12-07T15:26:44;99.80;;;36.35;;
76165;SDS011;65085;46.718;20.136;2022-12-07T15:29:48;96.50;;;41.35;;
76165;SDS011;65085;46.718;20.136;2022-12-07T15:32:52;86.10;;;40.50;;
76165;SDS011;65085;46.718;20.136;2022-12-07T15:35:58;99.40;;;42.75;;
76165;SDS011;65085;46.718;20.136;2022-12-07T15:39:01;161.03;;;55.17;;
76165;SDS011;65085;46.718;20.136;2022-12-07T15:42:21;199.38;;;68.93;;
76165;SDS011;65085;46.718;20.136;2022-12-07T15:45:24;164.05;;;58.72;;
76165;SDS011;65085;46.718;20.136;2022-12-07T15:48:26;166.13;;;57.63;;
76165;SDS011;65085;46.718;20.136;2022-12-07T15:51:30;162.10;;;57.78;;
76165;SDS011;65085;46.718;20.136;2022-12-07T15:54:33;151.03;;;55.07;;
76165;SDS011;65085;46.718;20.136;2022-12-07T15:57:37;178.23;;;65.60;;
76165;SDS011;65085;46.718;20.136;2022-12-07T16:00:40;175.20;;;64.28;;
76165;SDS011;65085;46.718;20.136;2022-12-07T16:03:43;170.75;;;64.00;;
76165;SDS011;65085;46.718;20.136;2022-12-07T16:06:47;176.38;;;67.13;;
76165;SDS011;65085;46.718;20.136;2022-12-07T16:09:50;178.87;;;68.57;;
76165;SDS011;65085;46.718;20.136;2022-12-07T16:12:54;172.48;;;67.07;;
76165;SDS011;65085;46.718;20.136;2022-12-07T16:15:56;209.02;;;79.82;;
76165;SDS011;65085;46.718;20.136;2022-12-07T16:18:59;219.95;;;81.55;;
76165;SDS011;65085;46.718;20.136;2022-12-07T16:22:02;234.43;;;86.60;;
76165;SDS011;65085;46.718;20.136;2022-12-07T16:25:06;170.67;;;63.27;;
76165;SDS011;65085;46.718;20.136;2022-12-07T16:28:11;174.15;;;68.60;;
76165;SDS011;65085;46.718;20.136;2022-12-07T16:31:14;161.25;;;62.13;;
76165;SDS011;65085;46.718;20.136;2022-12-07T16:34:18;172.55;;;64.28;;
76165;SDS011;65085;46.718;20.136;2022-12-07T16:37:21;174.73;;;64.63;;
76165;SDS011;65085;46.718;20.136;2022-12-07T16:40:23;174.90;;;65.50;;
76165;SDS011;65085;46.718;20.136;2022-12-07T16:43:27;161.00;;;62.10;;
76165;SDS011;65085;46.718;20.136;2022-12-07T16:46:31;152.80;;;57.80;;
76165;SDS011;65085;46.718;20.136;2022-12-07T16:49:34;133.85;;;51.65;;
76165;SDS011;65085;46.718;20.136;2022-12-07T16:52:36;140.55;;;53.97;;
76165;SDS011;65085;46.718;20.136;2022-12-07T16:55:39;154.80;;;57.77;;
76165;SDS011;65085;46.718;20.136;2022-12-07T16:58:45;147.25;;;56.00;;
76165;SDS011;65085;46.718;20.136;2022-12-07T17:01:51;145.32;;;52.63;;
76165;SDS011;65085;46.718;20.136;2022-12-07T17:04:54;139.55;;;51.22;;
76165;SDS011;65085;46.718;20.136;2022-12-07T17:07:57;139.65;;;52.55;;
76165;SDS011;65085;46.718;20.136;2022-12-07T17:10:59;143.33;;;54.70;;
76165;SDS011;65085;46.718;20.136;2022-12-07T17:14:03;145.15;;;54.10;;
76165;SDS011;65085;46.718;20.136;2022-12-07T17:17:24;138.57;;;51.58;;
76165;SDS011;65085;46.718;20.136;2022-12-07T17:20:27;145.65;;;55.15;;
76165;SDS011;65085;46.718;20.136;2022-12-07T17:23:30;161.10;;;57.20;;
76165;SDS011;65085;46.718;20.136;2022-12-07T17:26:33;142.17;;;54.33;;
76165;SDS011;65085;46.718;20.136;2022-12-07T17:29:39;161.07;;;56.13;;
76165;SDS011;65085;46.718;20.136;2022-12-07T17:32:41;153.02;;;52.70;;
76165;SDS011;65085;46.718;20.136;2022-12-07T17:35:44;173.07;;;62.03;;
76165;SDS011;65085;46.718;20.136;2022-12-07T17:38:46;139.98;;;54.75;;
76165;SDS011;65085;46.718;20.136;2022-12-07T17:41:49;138.83;;;52.00;;
76165;SDS011;65085;46.718;20.136;2022-12-07T17:45:12;121.95;;;48.55;;
76165;SDS011;65085;46.718;20.136;2022-12-07T17:48:15;126.03;;;49.55;;
76165;SDS011;65085;46.718;20.136;2022-12-07T17:51:17;138.23;;;52.72;;
76165;SDS011;65085;46.718;20.136;2022-12-07T17:54:38;150.32;;;56.50;;
76165;SDS011;65085;46.718;20.136;2022-12-07T17:57:41;137.23;;;52.70;;
76165;SDS011;65085;46.718;20.136;2022-12-07T18:00:45;154.10;;;56.88;;
76165;SDS011;65085;46.718;20.136;2022-12-07T18:03:49;140.55;;;54.13;;
76165;SDS011;65085;46.718;20.136;2022-12-07T18:06:51;135.52;;;53.78;;
76165;SDS011;65085;46.718;20.136;2022-12-07T18:09:54;130.48;;;52.55;;
76165;SDS011;65085;46.718;20.136;2022-12-07T18:12:56;113.37;;;46.30;;